PWSweather.com
Personal Weather Stations
Station Observations
COONRAPIDS
Minneapolis, MN 55433

Minneapolis, MN 55433

Lat: 45.187721, Lon: -93.36828

Elevation: 898

Station Type: Davis Vantage Pro 2

High Low Average
Temperature 71.9°F22.2°C 50.4°F10.2°C 61.9°F16.6°C
Dew Point 56.3°F13.5°C 46.5°F8.1°C 51.7°F10.9°C
Winds 1.2 mph 1.9 kmh Calm Calm Calm SECalm SE
Wind Gusts 4.6 mph7.4 kmh -- 1.0 mph1.6 kmh
Humidity 89% 51% 70%
Pressure 30.16 in1021.3 mb 29.95 in1014.2 mb -
Precipitation 0.00 in0.0 mm - -
Hour Temp Dew Point Humidity Winds Wind Gusts Pressure Precip Precip Rate Daily Precip Total
12:00 AM 52.7°F11.5°C 47.7°F8.7°C 83% Calm Calm -- 30.15 in1021.0 mb - 0.00 in0.0 mm 0.00 in0.0 mm
12:10 AM 52.5°F11.4°C 47.5°F8.6°C 83% Calm Calm -- 30.15 in1021.0 mb - 0.00 in0.0 mm 0.00 in0.0 mm
12:20 AM 52.3°F11.3°C 47.3°F8.5°C 83% Calm Calm -- 30.14 in1020.7 mb - 0.00 in0.0 mm 0.00 in0.0 mm
12:30 AM 52.1°F11.2°C 47.1°F8.4°C 83% Calm Calm -- 30.15 in1021.0 mb - 0.00 in0.0 mm 0.00 in0.0 mm
12:40 AM 51.9°F11.1°C 47.2°F8.4°C 84% Calm Calm -- 30.14 in1020.7 mb - 0.00 in0.0 mm 0.00 in0.0 mm
12:50 AM 51.8°F11.0°C 47.1°F8.4°C 84% Calm Calm -- 30.14 in1020.7 mb - 0.00 in0.0 mm 0.00 in0.0 mm
01:00 AM 51.6°F10.9°C 46.9°F8.3°C 84% Calm Calm -- 30.14 in1020.7 mb - 0.00 in0.0 mm 0.00 in0.0 mm
01:10 AM 51.4°F10.8°C 47.0°F8.3°C 85% Calm Calm -- 30.14 in1020.7 mb - 0.00 in0.0 mm 0.00 in0.0 mm
01:20 AM 51.3°F10.7°C 46.9°F8.3°C 85% Calm Calm -- 30.14 in1020.7 mb - 0.00 in0.0 mm 0.00 in0.0 mm
01:30 AM 51.2°F10.7°C 46.8°F8.2°C 85% Calm Calm -- 30.14 in1020.7 mb - 0.00 in0.0 mm 0.00 in0.0 mm
01:40 AM 51.1°F10.6°C 47.1°F8.4°C 86% Calm Calm -- 30.14 in1020.7 mb - 0.00 in0.0 mm 0.00 in0.0 mm
01:50 AM 50.8°F10.4°C 46.5°F8.1°C 85% Calm Calm -- 30.14 in1020.7 mb - 0.00 in0.0 mm 0.00 in0.0 mm
02:00 AM 50.7°F10.4°C 46.7°F8.2°C 86% Calm Calm -- 30.14 in1020.7 mb - 0.00 in0.0 mm 0.00 in0.0 mm
02:10 AM 50.8°F10.4°C 46.8°F8.2°C 86% Calm Calm -- 30.14 in1020.7 mb - 0.00 in0.0 mm 0.00 in0.0 mm
02:20 AM 50.7°F10.4°C 46.7°F8.2°C 86% Calm Calm -- 30.14 in1020.7 mb - 0.00 in0.0 mm 0.00 in0.0 mm
02:30 AM 50.6°F10.3°C 46.9°F8.3°C 87% Calm Calm -- 30.14 in1020.7 mb - 0.00 in0.0 mm 0.00 in0.0 mm
02:40 AM 50.5°F10.3°C 46.8°F8.2°C 87% Calm Calm -- 30.14 in1020.7 mb - 0.00 in0.0 mm 0.00 in0.0 mm
02:50 AM 50.4°F10.2°C 46.7°F8.2°C 87% Calm Calm -- 30.14 in1020.7 mb - 0.00 in0.0 mm 0.00 in0.0 mm
03:00 AM 50.4°F10.2°C 46.7°F8.2°C 87% Calm Calm -- 30.14 in1020.7 mb - 0.00 in0.0 mm 0.00 in0.0 mm
03:10 AM 50.4°F10.2°C 46.7°F8.2°C 87% Calm Calm -- 30.14 in1020.7 mb - 0.00 in0.0 mm 0.00 in0.0 mm
03:20 AM 50.4°F10.2°C 46.7°F8.2°C 87% Calm Calm -- 30.14 in1020.7 mb - 0.00 in0.0 mm 0.00 in0.0 mm
03:30 AM 50.4°F10.2°C 47.0°F8.3°C 88% Calm Calm -- 30.14 in1020.7 mb - 0.00 in0.0 mm 0.00 in0.0 mm
03:40 AM 50.4°F10.2°C 47.0°F8.3°C 88% Calm Calm -- 30.15 in1021.0 mb - 0.00 in0.0 mm 0.00 in0.0 mm
03:50 AM 50.8°F10.4°C 47.4°F8.6°C 88% Calm Calm -- 30.14 in1020.7 mb - 0.00 in0.0 mm 0.00 in0.0 mm
04:00 AM 52.0°F11.1°C 48.9°F9.4°C 89% Calm Calm -- 30.14 in1020.7 mb - 0.00 in0.0 mm 0.00 in0.0 mm
04:10 AM 52.3°F11.3°C 49.2°F9.6°C 89% Calm Calm -- 30.14 in1020.7 mb - 0.00 in0.0 mm 0.00 in0.0 mm
04:20 AM 52.2°F11.2°C 49.1°F9.5°C 89% Calm Calm -- 30.14 in1020.7 mb - 0.00 in0.0 mm 0.00 in0.0 mm
04:30 AM 52.2°F11.2°C 49.1°F9.5°C 89% Calm Calm -- 30.15 in1021.0 mb - 0.00 in0.0 mm 0.00 in0.0 mm
04:40 AM 52.7°F11.5°C 49.5°F9.7°C 89% Calm Calm -- 30.15 in1021.0 mb - 0.00 in0.0 mm 0.00 in0.0 mm
04:50 AM 52.9°F11.6°C 49.7°F9.8°C 89% Calm Calm -- 30.15 in1021.0 mb - 0.00 in0.0 mm 0.00 in0.0 mm
05:00 AM 52.8°F11.6°C 49.6°F9.8°C 89% Calm Calm -- 30.15 in1021.0 mb - 0.00 in0.0 mm 0.00 in0.0 mm
05:10 AM 53.0°F11.7°C 49.8°F9.9°C 89% Calm Calm -- 30.15 in1021.0 mb - 0.00 in0.0 mm 0.00 in0.0 mm
05:20 AM 53.3°F11.8°C 49.8°F9.9°C 88% Calm Calm -- 30.15 in1021.0 mb - 0.00 in0.0 mm 0.00 in0.0 mm
05:30 AM 53.5°F11.9°C 49.7°F9.8°C 87% Calm Calm -- 30.14 in1020.7 mb - 0.00 in0.0 mm 0.00 in0.0 mm
05:40 AM 53.6°F12.0°C 49.5°F9.7°C 86% Calm Calm 2.3 mph3.7 kmh 30.15 in1021.0 mb - 0.00 in0.0 mm 0.00 in0.0 mm
05:50 AM 53.6°F12.0°C 49.2°F9.6°C 85% Calm Calm -- 30.16 in1021.3 mb - 0.00 in0.0 mm 0.00 in0.0 mm
06:00 AM 53.6°F12.0°C 49.2°F9.6°C 85% Calm Calm -- 30.15 in1021.0 mb - 0.00 in0.0 mm 0.00 in0.0 mm
06:10 AM 53.6°F12.0°C 49.2°F9.6°C 85% Calm Calm -- 30.15 in1021.0 mb - 0.00 in0.0 mm 0.00 in0.0 mm
06:20 AM 53.6°F12.0°C 49.2°F9.6°C 85% Calm Calm 1.2 mph1.9 kmh 30.14 in1020.7 mb - 0.00 in0.0 mm 0.00 in0.0 mm
06:30 AM 53.9°F12.2°C 49.5°F9.7°C 85% Calm Calm -- 30.15 in1021.0 mb - 0.00 in0.0 mm 0.00 in0.0 mm
06:40 AM 54.1°F12.3°C 49.7°F9.8°C 85% Calm Calm -- 30.15 in1021.0 mb - 0.00 in0.0 mm 0.00 in0.0 mm
06:50 AM 54.3°F12.4°C 49.6°F9.8°C 84% Calm Calm -- 30.15 in1021.0 mb - 0.00 in0.0 mm 0.00 in0.0 mm
07:00 AM 54.5°F12.5°C 49.8°F9.9°C 84% Calm Calm -- 30.16 in1021.3 mb - 0.00 in0.0 mm 0.00 in0.0 mm
07:10 AM 54.7°F12.6°C 49.6°F9.8°C 83% Calm Calm -- 30.15 in1021.0 mb - 0.00 in0.0 mm 0.00 in0.0 mm
07:20 AM 55.0°F12.8°C 49.6°F9.8°C 82% Calm Calm -- 30.16 in1021.3 mb - 0.00 in0.0 mm 0.00 in0.0 mm
07:30 AM 55.1°F12.8°C 49.4°F9.7°C 81% Calm Calm -- 30.16 in1021.3 mb - 0.00 in0.0 mm 0.00 in0.0 mm
07:40 AM 55.4°F13.0°C 49.3°F9.6°C 80% Calm Calm -- 30.15 in1021.0 mb - 0.00 in0.0 mm 0.00 in0.0 mm
07:50 AM 55.8°F13.2°C 49.4°F9.7°C 79% Calm Calm -- 30.15 in1021.0 mb - 0.00 in0.0 mm 0.00 in0.0 mm
08:00 AM 56.0°F13.3°C 48.5°F9.2°C 76% Calm Calm -- 30.14 in1020.7 mb - 0.00 in0.0 mm 0.00 in0.0 mm
08:10 AM 56.4°F13.6°C 48.6°F9.2°C 75% Calm Calm 1.2 mph1.9 kmh 30.14 in1020.7 mb - 0.00 in0.0 mm 0.00 in0.0 mm
08:20 AM 56.7°F13.7°C 48.5°F9.2°C 74% 1.2 mph ESE1.9 kmh ESE 1.2 mph1.9 kmh 30.14 in1020.7 mb - 0.00 in0.0 mm 0.00 in0.0 mm
08:30 AM 57.1°F13.9°C 48.9°F9.4°C 74% Calm Calm 3.5 mph5.6 kmh 30.14 in1020.7 mb - 0.00 in0.0 mm 0.00 in0.0 mm
08:50 AM 58.2°F14.6°C 49.6°F9.8°C 73% Calm Calm -- 30.14 in1020.7 mb - 0.00 in0.0 mm 0.00 in0.0 mm
09:00 AM 58.7°F14.8°C 49.3°F9.6°C 71% Calm Calm -- 30.14 in1020.7 mb - 0.00 in0.0 mm 0.00 in0.0 mm
09:10 AM 59.1°F15.1°C 49.3°F9.6°C 70% Calm Calm -- 30.13 in1020.3 mb - 0.00 in0.0 mm 0.00 in0.0 mm
09:20 AM 59.6°F15.3°C 49.4°F9.7°C 69% 1.2 mph SSE1.9 kmh SSE 3.5 mph5.6 kmh 30.13 in1020.3 mb - 0.00 in0.0 mm 0.00 in0.0 mm
09:30 AM 60.1°F15.6°C 49.9°F9.9°C 69% Calm Calm -- 30.13 in1020.3 mb - 0.00 in0.0 mm 0.00 in0.0 mm
09:40 AM 60.8°F16.0°C 50.6°F10.3°C 69% Calm Calm -- 30.13 in1020.3 mb - 0.00 in0.0 mm 0.00 in0.0 mm
09:50 AM 61.3°F16.3°C 50.2°F10.1°C 67% Calm Calm -- 30.13 in1020.3 mb - 0.00 in0.0 mm 0.00 in0.0 mm
10:00 AM 61.9°F16.6°C 50.4°F10.2°C 66% Calm Calm 3.5 mph5.6 kmh 30.12 in1020.0 mb - 0.00 in0.0 mm 0.00 in0.0 mm
10:10 AM 62.3°F16.8°C 51.2°F10.7°C 67% Calm Calm -- 30.12 in1020.0 mb - 0.00 in0.0 mm 0.00 in0.0 mm
10:20 AM 63.0°F17.2°C 51.1°F10.6°C 65% Calm Calm -- 30.12 in1020.0 mb - 0.00 in0.0 mm 0.00 in0.0 mm
10:30 AM 64.1°F17.8°C 51.7°F10.9°C 64% Calm Calm 2.3 mph3.7 kmh 30.12 in1020.0 mb - 0.00 in0.0 mm 0.00 in0.0 mm
10:40 AM 64.6°F18.1°C 50.4°F10.2°C 60% 1.2 mph SE1.9 kmh SE 3.5 mph5.6 kmh 30.12 in1020.0 mb - 0.00 in0.0 mm 0.00 in0.0 mm
10:50 AM 64.9°F18.3°C 50.7°F10.4°C 60% 1.2 mph SW1.9 kmh SW 2.3 mph3.7 kmh 30.11 in1019.6 mb - 0.00 in0.0 mm 0.00 in0.0 mm
11:00 AM 65.6°F18.7°C 51.4°F10.8°C 60% Calm Calm 1.2 mph1.9 kmh 30.11 in1019.6 mb - 0.00 in0.0 mm 0.00 in0.0 mm
11:10 AM 66.7°F19.3°C 51.9°F11.1°C 59% Calm Calm 1.2 mph1.9 kmh 30.11 in1019.6 mb - 0.00 in0.0 mm 0.00 in0.0 mm
11:20 AM 66.6°F19.2°C 51.9°F11.1°C 59% Calm Calm 1.2 mph1.9 kmh 30.10 in1019.3 mb - 0.00 in0.0 mm 0.00 in0.0 mm
11:30 AM 66.3°F19.1°C 50.1°F10.1°C 56% Calm Calm 2.3 mph3.7 kmh 30.10 in1019.3 mb - 0.00 in0.0 mm 0.00 in0.0 mm
11:40 AM 67.2°F19.6°C 51.5°F10.8°C 57% Calm Calm -- 30.10 in1019.3 mb - 0.00 in0.0 mm 0.00 in0.0 mm
11:50 AM 67.8°F19.9°C 50.5°F10.3°C 54% Calm Calm -- 30.10 in1019.3 mb - 0.00 in0.0 mm 0.00 in0.0 mm
12:00 PM 67.6°F19.8°C 50.4°F10.2°C 54% Calm Calm -- 30.09 in1019.0 mb - 0.00 in0.0 mm 0.00 in0.0 mm
12:10 PM 67.2°F19.6°C 51.0°F10.6°C 56% 1.2 mph N1.9 kmh N 2.3 mph3.7 kmh 30.09 in1019.0 mb - 0.00 in0.0 mm 0.00 in0.0 mm
12:20 PM 67.6°F19.8°C 50.4°F10.2°C 54% Calm Calm 3.5 mph5.6 kmh 30.09 in1019.0 mb - 0.00 in0.0 mm 0.00 in0.0 mm
12:30 PM 67.5°F19.7°C 50.3°F10.2°C 54% Calm Calm 1.2 mph1.9 kmh 30.09 in1019.0 mb - 0.00 in0.0 mm 0.00 in0.0 mm
12:40 PM 68.0°F20.0°C 51.7°F10.9°C 56% Calm Calm -- 30.09 in1019.0 mb - 0.00 in0.0 mm 0.00 in0.0 mm
12:50 PM 68.6°F20.3°C 51.3°F10.7°C 54% Calm Calm -- 30.07 in1018.3 mb - 0.00 in0.0 mm 0.00 in0.0 mm
01:00 PM 68.8°F20.4°C 51.0°F10.6°C 53% Calm Calm -- 30.07 in1018.3 mb - 0.00 in0.0 mm 0.00 in0.0 mm
01:10 PM 69.2°F20.7°C 51.9°F11.1°C 54% Calm Calm -- 30.07 in1018.3 mb - 0.00 in0.0 mm 0.00 in0.0 mm
01:20 PM 69.2°F20.7°C 51.3°F10.7°C 53% Calm Calm -- 30.07 in1018.3 mb - 0.00 in0.0 mm 0.00 in0.0 mm
01:30 PM 69.7°F20.9°C 52.8°F11.6°C 55% Calm Calm -- 30.07 in1018.3 mb - 0.00 in0.0 mm 0.00 in0.0 mm
01:40 PM 70.0°F21.1°C 53.1°F11.7°C 55% Calm Calm -- 30.06 in1017.9 mb - 0.00 in0.0 mm 0.00 in0.0 mm
01:50 PM 70.3°F21.3°C 52.9°F11.6°C 54% Calm Calm 3.5 mph5.6 kmh 30.05 in1017.6 mb - 0.00 in0.0 mm 0.00 in0.0 mm
02:00 PM 70.2°F21.2°C 52.3°F11.3°C 53% Calm Calm -- 30.05 in1017.6 mb - 0.00 in0.0 mm 0.00 in0.0 mm
02:10 PM 70.2°F21.2°C 52.8°F11.6°C 54% Calm Calm -- 30.05 in1017.6 mb - 0.00 in0.0 mm 0.00 in0.0 mm
02:20 PM 70.1°F21.2°C 52.7°F11.5°C 54% Calm Calm 2.3 mph3.7 kmh 30.04 in1017.3 mb - 0.00 in0.0 mm 0.00 in0.0 mm
02:30 PM 70.3°F21.3°C 53.9°F12.2°C 56% Calm Calm -- 30.04 in1017.3 mb - 0.00 in0.0 mm 0.00 in0.0 mm
02:40 PM 70.4°F21.3°C 54.0°F12.2°C 56% Calm Calm -- 30.04 in1017.3 mb - 0.00 in0.0 mm 0.00 in0.0 mm
02:50 PM 71.0°F21.7°C 54.0°F12.2°C 55% Calm Calm 1.2 mph1.9 kmh 30.04 in1017.3 mb - 0.00 in0.0 mm 0.00 in0.0 mm
03:00 PM 70.2°F21.2°C 54.2°F12.3°C 57% Calm Calm -- 30.03 in1016.9 mb - 0.00 in0.0 mm 0.00 in0.0 mm
03:10 PM 70.3°F21.3°C 55.3°F12.9°C 59% Calm Calm -- 30.03 in1016.9 mb - 0.00 in0.0 mm 0.00 in0.0 mm
03:20 PM 71.2°F21.8°C 53.7°F12.1°C 54% Calm Calm -- 30.02 in1016.6 mb - 0.00 in0.0 mm 0.00 in0.0 mm
03:30 PM 71.9°F22.2°C 52.8°F11.6°C 51% Calm Calm 2.3 mph3.7 kmh 30.02 in1016.6 mb - 0.00 in0.0 mm 0.00 in0.0 mm
03:40 PM 71.9°F22.2°C 52.8°F11.6°C 51% Calm Calm -- 30.01 in1016.3 mb - 0.00 in0.0 mm 0.00 in0.0 mm
03:50 PM 71.6°F22.0°C 52.5°F11.4°C 51% Calm Calm -- 30.01 in1016.3 mb - 0.00 in0.0 mm 0.00 in0.0 mm
04:00 PM 70.9°F21.6°C 52.9°F11.6°C 53% Calm Calm -- 30.01 in1016.3 mb - 0.00 in0.0 mm 0.00 in0.0 mm
04:10 PM 70.3°F21.3°C 54.3°F12.4°C 57% Calm Calm 1.2 mph1.9 kmh 30.01 in1016.3 mb - 0.00 in0.0 mm 0.00 in0.0 mm
04:20 PM 70.7°F21.5°C 53.7°F12.1°C 55% Calm Calm 1.2 mph1.9 kmh 30.01 in1016.3 mb - 0.00 in0.0 mm 0.00 in0.0 mm
04:30 PM 70.2°F21.2°C 53.7°F12.1°C 56% Calm Calm -- 30.01 in1016.3 mb - 0.00 in0.0 mm 0.00 in0.0 mm
04:40 PM 69.7°F20.9°C 54.2°F12.3°C 58% Calm Calm -- 30.01 in1016.3 mb - 0.00 in0.0 mm 0.00 in0.0 mm
04:50 PM 69.3°F20.7°C 53.9°F12.2°C 58% Calm Calm -- 30.01 in1016.3 mb - 0.00 in0.0 mm 0.00 in0.0 mm
05:00 PM 69.1°F20.6°C 54.6°F12.6°C 60% Calm Calm -- 30.00 in1015.9 mb - 0.00 in0.0 mm 0.00 in0.0 mm
05:10 PM 69.2°F20.7°C 55.2°F12.9°C 61% Calm Calm -- 30.00 in1015.9 mb - 0.00 in0.0 mm 0.00 in0.0 mm
05:20 PM 69.4°F20.8°C 55.3°F12.9°C 61% Calm Calm -- 29.99 in1015.6 mb - 0.00 in0.0 mm 0.00 in0.0 mm
05:30 PM 69.3°F20.7°C 55.7°F13.2°C 62% Calm Calm -- 29.99 in1015.6 mb - 0.00 in0.0 mm 0.00 in0.0 mm
05:40 PM 69.0°F20.6°C 55.0°F12.8°C 61% 1.2 mph W1.9 kmh W 1.2 mph1.9 kmh 29.99 in1015.6 mb - 0.00 in0.0 mm 0.00 in0.0 mm
05:50 PM 68.7°F20.4°C 55.2°F12.9°C 62% Calm Calm 2.3 mph3.7 kmh 29.98 in1015.2 mb - 0.00 in0.0 mm 0.00 in0.0 mm
06:00 PM 68.4°F20.2°C 55.8°F13.2°C 64% Calm Calm -- 29.98 in1015.2 mb - 0.00 in0.0 mm 0.00 in0.0 mm
06:10 PM 68.1°F20.1°C 55.9°F13.3°C 65% Calm Calm -- 29.98 in1015.2 mb - 0.00 in0.0 mm 0.00 in0.0 mm
06:20 PM 68.0°F20.0°C 55.8°F13.2°C 65% Calm Calm -- 29.98 in1015.2 mb - 0.00 in0.0 mm 0.00 in0.0 mm
06:30 PM 67.9°F19.9°C 56.1°F13.4°C 66% Calm Calm -- 29.98 in1015.2 mb - 0.00 in0.0 mm 0.00 in0.0 mm
06:40 PM 68.0°F20.0°C 56.2°F13.4°C 66% Calm Calm -- 29.98 in1015.2 mb - 0.00 in0.0 mm 0.00 in0.0 mm
06:50 PM 67.9°F19.9°C 56.1°F13.4°C 66% 1.2 mph SSE1.9 kmh SSE -- 29.98 in1015.2 mb - 0.00 in0.0 mm 0.00 in0.0 mm
07:00 PM 67.9°F19.9°C 56.1°F13.4°C 66% Calm Calm -- 29.98 in1015.2 mb - 0.00 in0.0 mm 0.00 in0.0 mm
07:10 PM 67.9°F19.9°C 55.7°F13.2°C 65% Calm Calm -- 29.98 in1015.2 mb - 0.00 in0.0 mm 0.00 in0.0 mm
07:20 PM 68.0°F20.0°C 55.4°F13.0°C 64% 1.2 mph ESE1.9 kmh ESE 2.3 mph3.7 kmh 29.98 in1015.2 mb - 0.00 in0.0 mm 0.00 in0.0 mm
07:30 PM 67.9°F19.9°C 55.7°F13.2°C 65% 1.2 mph SE1.9 kmh SE 3.5 mph5.6 kmh 29.98 in1015.2 mb - 0.00 in0.0 mm 0.00 in0.0 mm
07:40 PM 67.9°F19.9°C 55.7°F13.2°C 65% Calm Calm -- 29.98 in1015.2 mb - 0.00 in0.0 mm 0.00 in0.0 mm
07:50 PM 67.7°F19.8°C 55.5°F13.1°C 65% Calm Calm -- 29.98 in1015.2 mb - 0.00 in0.0 mm 0.00 in0.0 mm
08:00 PM 67.7°F19.8°C 55.5°F13.1°C 65% Calm Calm -- 29.99 in1015.6 mb - 0.00 in0.0 mm 0.00 in0.0 mm
08:10 PM 67.8°F19.9°C 55.1°F12.8°C 64% Calm Calm -- 29.99 in1015.6 mb - 0.00 in0.0 mm 0.00 in0.0 mm
08:20 PM 67.7°F19.8°C 55.1°F12.8°C 64% Calm Calm 1.2 mph1.9 kmh 29.99 in1015.6 mb - 0.00 in0.0 mm 0.00 in0.0 mm
08:30 PM 67.7°F19.8°C 55.1°F12.8°C 64% Calm Calm -- 29.99 in1015.6 mb - 0.00 in0.0 mm 0.00 in0.0 mm
08:40 PM 67.3°F19.6°C 55.5°F13.1°C 66% Calm Calm -- 29.99 in1015.6 mb - 0.00 in0.0 mm 0.00 in0.0 mm
08:50 PM 66.3°F19.1°C 56.3°F13.5°C 70% Calm Calm 4.6 mph7.4 kmh 29.98 in1015.2 mb - 0.00 in0.0 mm 0.00 in0.0 mm
09:00 PM 65.8°F18.8°C 56.2°F13.4°C 71% 1.2 mph SSE1.9 kmh SSE -- 29.98 in1015.2 mb - 0.00 in0.0 mm 0.00 in0.0 mm
09:10 PM 65.8°F18.8°C 55.7°F13.2°C 70% Calm Calm -- 29.97 in1014.9 mb - 0.00 in0.0 mm 0.00 in0.0 mm
09:20 PM 65.9°F18.8°C 55.8°F13.2°C 70% Calm Calm 3.5 mph5.6 kmh 29.98 in1015.2 mb - 0.00 in0.0 mm 0.00 in0.0 mm
09:30 PM 65.7°F18.7°C 56.0°F13.3°C 71% Calm Calm -- 29.97 in1014.9 mb - 0.00 in0.0 mm 0.00 in0.0 mm
09:40 PM 65.6°F18.7°C 55.9°F13.3°C 71% Calm Calm -- 29.97 in1014.9 mb - 0.00 in0.0 mm 0.00 in0.0 mm
09:50 PM 65.4°F18.6°C 55.7°F13.2°C 71% 1.2 mph SSE1.9 kmh SSE -- 29.97 in1014.9 mb - 0.00 in0.0 mm 0.00 in0.0 mm
10:00 PM 65.4°F18.6°C 55.7°F13.2°C 71% Calm Calm 3.5 mph5.6 kmh 29.97 in1014.9 mb - 0.00 in0.0 mm 0.00 in0.0 mm
10:10 PM 65.4°F18.6°C 55.4°F13.0°C 70% Calm Calm 2.3 mph3.7 kmh 29.97 in1014.9 mb - 0.00 in0.0 mm 0.00 in0.0 mm
10:20 PM 65.4°F18.6°C 55.7°F13.2°C 71% Calm Calm -- 29.97 in1014.9 mb - 0.00 in0.0 mm 0.00 in0.0 mm
10:30 PM 65.4°F18.6°C 55.4°F13.0°C 70% Calm Calm 2.3 mph3.7 kmh 29.96 in1014.6 mb - 0.00 in0.0 mm 0.00 in0.0 mm
10:40 PM 65.3°F18.5°C 55.7°F13.2°C 71% Calm Calm -- 29.96 in1014.6 mb - 0.00 in0.0 mm 0.00 in0.0 mm
10:50 PM 65.4°F18.6°C 55.4°F13.0°C 70% Calm Calm -- 29.96 in1014.6 mb - 0.00 in0.0 mm 0.00 in0.0 mm
11:00 PM 65.4°F18.6°C 55.4°F13.0°C 70% Calm Calm 1.2 mph1.9 kmh 29.95 in1014.2 mb - 0.00 in0.0 mm 0.00 in0.0 mm
11:10 PM 65.2°F18.4°C 55.6°F13.1°C 71% Calm Calm -- 29.95 in1014.2 mb - 0.00 in0.0 mm 0.00 in0.0 mm
11:20 PM 65.2°F18.4°C 55.6°F13.1°C 71% Calm Calm 2.3 mph3.7 kmh 29.95 in1014.2 mb - 0.00 in0.0 mm 0.00 in0.0 mm
11:30 PM 65.2°F18.4°C 55.2°F12.9°C 70% Calm Calm -- 29.95 in1014.2 mb - 0.00 in0.0 mm 0.00 in0.0 mm
11:40 PM 65.5°F18.6°C 55.4°F13.0°C 70% Calm Calm -- 29.95 in1014.2 mb - 0.00 in0.0 mm 0.00 in0.0 mm
11:50 PM 65.5°F18.6°C 55.5°F13.1°C 70% Calm Calm -- 29.95 in1014.2 mb - 0.00 in0.0 mm 0.00 in0.0 mm